createdAt,value
2022-11-24T00:00:51.004Z,18.50
2022-11-24T00:03:17.652Z,18.50
2022-11-24T00:05:44.422Z,18.50
2022-11-24T00:08:10.936Z,18.49
2022-11-24T00:10:37.367Z,18.49
2022-11-24T00:13:03.852Z,18.47
2022-11-24T00:15:30.260Z,18.47
2022-11-24T00:17:56.679Z,18.46
2022-11-24T00:20:23.071Z,18.44
2022-11-24T00:22:49.491Z,18.44
2022-11-24T00:25:15.891Z,18.43
2022-11-24T00:27:42.324Z,18.41
2022-11-24T00:30:09.916Z,18.41
2022-11-24T00:32:36.318Z,18.40
2022-11-24T00:35:02.727Z,18.38
2022-11-24T00:37:29.176Z,18.37
2022-11-24T00:39:55.717Z,18.38
2022-11-24T00:42:22.126Z,18.36
2022-11-24T00:44:48.573Z,18.37
2022-11-24T00:47:15.133Z,18.38
2022-11-24T00:49:41.555Z,18.38
2022-11-24T00:52:07.981Z,18.37
2022-11-24T00:54:34.651Z,18.35
2022-11-24T00:57:01.395Z,18.34
2022-11-24T00:59:27.869Z,18.33
2022-11-24T01:01:54.354Z,18.33
2022-11-24T01:04:20.962Z,18.32
2022-11-24T01:06:47.429Z,18.32
2022-11-24T01:09:13.877Z,18.31
2022-11-24T01:11:59.070Z,18.30
2022-11-24T01:14:25.633Z,18.28
2022-11-24T01:16:52.126Z,18.27
2022-11-24T01:19:18.588Z,18.25
2022-11-24T01:21:45.010Z,18.24
2022-11-24T01:24:11.974Z,18.23
2022-11-24T01:26:38.502Z,18.23
2022-11-24T01:29:05.073Z,18.24
2022-11-24T01:31:32.851Z,18.23
2022-11-24T01:33:59.261Z,18.24
2022-11-24T01:36:25.765Z,18.25
2022-11-24T01:38:52.257Z,18.25
2022-11-24T01:41:23.182Z,18.25
2022-11-24T01:43:50.172Z,18.24
2022-11-24T01:46:16.676Z,18.24
2022-11-24T01:48:45.616Z,18.23
2022-11-24T01:51:17.374Z,18.23
2022-11-24T01:53:45.742Z,18.23
2022-11-24T01:56:13.077Z,18.21
2022-11-24T01:58:40.298Z,18.21
2022-11-24T02:01:06.868Z,18.20
2022-11-24T02:03:34.641Z,18.20
2022-11-24T02:06:03.473Z,18.17
2022-11-24T02:08:29.875Z,18.19
2022-11-24T02:10:56.734Z,18.17
2022-11-24T02:13:23.565Z,18.16
2022-11-24T02:15:50.072Z,18.16
2022-11-24T02:18:16.489Z,18.15
2022-11-24T02:20:42.949Z,18.18
2022-11-24T02:23:20.650Z,18.19
2022-11-24T02:25:47.021Z,18.19
2022-11-24T02:28:15.752Z,18.20
2022-11-24T02:30:42.400Z,18.17
2022-11-24T02:33:10.271Z,18.17
2022-11-24T02:35:36.851Z,18.15
2022-11-24T02:38:03.304Z,18.13
2022-11-24T02:40:30.973Z,18.15
2022-11-24T02:43:04.851Z,18.16
2022-11-24T02:45:31.949Z,18.17
2022-11-24T02:47:58.468Z,18.17
2022-11-24T02:50:25.034Z,18.19
2022-11-24T02:52:51.533Z,18.16
2022-11-24T02:55:18.047Z,18.16
2022-11-24T02:57:44.513Z,18.17
2022-11-24T03:00:11.693Z,18.15
2022-11-24T03:02:38.204Z,18.14
2022-11-24T03:05:04.902Z,18.11
2022-11-24T03:07:31.356Z,18.10
2022-11-24T03:09:57.825Z,18.10
2022-11-24T03:12:24.261Z,18.10
2022-11-24T03:14:50.742Z,18.08
2022-11-24T03:17:17.193Z,18.11
2022-11-24T03:19:43.689Z,18.10
2022-11-24T03:22:11.907Z,18.11
2022-11-24T03:24:38.475Z,18.12
2022-11-24T03:27:04.923Z,18.13
2022-11-24T03:29:31.391Z,18.14
2022-11-24T03:31:58.713Z,18.14
2022-11-24T03:34:25.136Z,18.16
2022-11-24T03:36:51.565Z,18.17
2022-11-24T03:39:17.989Z,18.17
2022-11-24T03:41:44.457Z,18.17
2022-11-24T03:44:10.866Z,18.17
2022-11-24T03:46:37.430Z,18.19
2022-11-24T03:49:03.897Z,18.17
2022-11-24T03:51:30.310Z,18.19
2022-11-24T03:53:56.769Z,18.19
2022-11-24T03:56:23.189Z,18.20
2022-11-24T03:58:50.054Z,18.20
2022-11-24T04:01:16.578Z,18.20
2022-11-24T04:03:43.138Z,18.19
2022-11-24T04:06:09.823Z,18.19
2022-11-24T04:08:36.230Z,18.17
2022-11-24T04:11:02.778Z,18.15
2022-11-24T04:13:29.187Z,18.14
2022-11-24T04:15:55.688Z,18.13
2022-11-24T04:18:22.365Z,18.13
2022-11-24T04:20:50.117Z,18.13
2022-11-24T04:23:16.777Z,18.12
2022-11-24T04:25:43.771Z,18.13
2022-11-24T04:28:10.345Z,18.12
2022-11-24T04:30:38.553Z,18.12
2022-11-24T04:33:04.994Z,18.12
2022-11-24T04:35:31.429Z,18.13
2022-11-24T04:38:01.694Z,18.13
2022-11-24T04:40:28.170Z,18.15
2022-11-24T04:42:55.433Z,18.15
2022-11-24T04:45:22.515Z,18.15
2022-11-24T04:47:49.047Z,18.16
2022-11-24T04:50:15.755Z,18.15
2022-11-24T04:52:43.292Z,18.17
2022-11-24T04:55:09.807Z,18.17
2022-11-24T04:57:36.322Z,18.18
2022-11-24T05:00:04.077Z,18.17
2022-11-24T05:02:30.537Z,18.19
2022-11-24T05:04:56.964Z,18.17
2022-11-24T05:07:23.439Z,18.20
2022-11-24T05:10:08.735Z,18.22
2022-11-24T05:12:35.190Z,18.21
2022-11-24T05:15:02.366Z,18.21
2022-11-24T05:17:29.761Z,18.23
2022-11-24T05:19:56.258Z,18.22
2022-11-24T05:22:22.789Z,18.23
2022-11-24T05:24:49.253Z,18.21
2022-11-24T05:27:15.765Z,18.22
2022-11-24T05:29:42.222Z,18.22
2022-11-24T05:32:08.774Z,18.22
2022-11-24T05:34:35.515Z,18.21
2022-11-24T05:37:05.189Z,18.22
2022-11-24T05:39:35.402Z,18.21
2022-11-24T05:42:22.403Z,18.24
2022-11-24T05:44:49.184Z,18.25
2022-11-24T05:47:15.642Z,18.26
2022-11-24T05:49:42.195Z,18.26
2022-11-24T05:52:08.729Z,18.26
2022-11-24T05:54:35.338Z,18.26
2022-11-24T05:57:02.107Z,18.26
2022-11-24T05:59:28.557Z,18.23
2022-11-24T06:01:55.130Z,18.23
2022-11-24T06:04:21.665Z,18.22
2022-11-24T06:06:48.108Z,18.21
2022-11-24T06:09:14.652Z,18.22
2022-11-24T06:11:41.063Z,18.24
2022-11-24T06:14:11.083Z,18.24
2022-11-24T06:16:38.121Z,18.26
2022-11-24T06:19:04.714Z,18.26
2022-11-24T06:21:31.832Z,18.26
2022-11-24T06:23:58.428Z,18.27
2022-11-24T06:26:24.851Z,18.28
2022-11-24T06:28:51.257Z,18.30
2022-11-24T06:31:17.859Z,18.30
2022-11-24T06:33:44.526Z,18.31
2022-11-24T06:36:13.248Z,18.33
2022-11-24T06:38:39.721Z,18.34
2022-11-24T06:41:07.428Z,18.35
2022-11-24T06:43:34.612Z,18.36
2022-11-24T06:46:01.618Z,18.38
2022-11-24T06:48:28.340Z,18.38
2022-11-24T06:50:58.617Z,18.38
2022-11-24T06:53:25.058Z,18.40
2022-11-24T06:55:51.991Z,18.41
2022-11-24T06:58:18.420Z,18.42
2022-11-24T07:00:44.951Z,18.41
2022-11-24T07:03:14.216Z,18.42
2022-11-24T07:05:40.737Z,18.43
2022-11-24T07:08:07.156Z,18.41
2022-11-24T07:10:33.694Z,18.41
2022-11-24T07:13:00.187Z,18.41
2022-11-24T07:15:28.578Z,18.41
2022-11-24T07:17:54.946Z,18.43
2022-11-24T07:20:21.337Z,18.43
2022-11-24T07:22:47.829Z,18.44
2022-11-24T07:25:14.637Z,18.43
2022-11-24T07:27:41.142Z,18.43
2022-11-24T07:30:08.446Z,18.42
2022-11-24T07:32:34.915Z,18.42
2022-11-24T07:35:01.300Z,18.41
2022-11-24T07:37:31.324Z,18.40
2022-11-24T07:39:58.432Z,18.37
2022-11-24T07:42:24.907Z,18.33
2022-11-24T07:44:51.311Z,18.37
2022-11-24T07:47:17.749Z,18.41
2022-11-24T07:49:44.174Z,18.32
2022-11-24T07:52:10.581Z,18.30
2022-11-24T07:54:37.240Z,18.32
2022-11-24T07:57:03.755Z,18.41
2022-11-24T07:59:30.249Z,18.50
2022-11-24T08:01:56.709Z,18.50
2022-11-24T08:04:23.257Z,18.52
2022-11-24T08:06:49.804Z,18.21
2022-11-24T08:09:16.258Z,17.97
2022-11-24T08:11:42.743Z,17.97
2022-11-24T08:14:09.206Z,18.10
2022-11-24T08:16:35.756Z,18.20
2022-11-24T08:19:02.301Z,18.29
2022-11-24T08:21:28.925Z,18.31
2022-11-24T08:23:56.476Z,18.39
2022-11-24T08:26:24.780Z,18.47
2022-11-24T08:28:54.333Z,18.52
2022-11-24T08:31:21.023Z,18.58
2022-11-24T08:33:47.825Z,18.63
2022-11-24T08:36:16.059Z,18.67
2022-11-24T08:38:42.971Z,18.70
2022-11-24T08:41:10.920Z,18.75
2022-11-24T08:43:37.659Z,18.78
2022-11-24T08:46:06.367Z,18.80
2022-11-24T08:48:33.092Z,18.83
2022-11-24T08:51:05.613Z,18.86
2022-11-24T08:53:32.039Z,18.88
2022-11-24T08:56:02.018Z,18.90
2022-11-24T08:58:29.321Z,18.91
2022-11-24T09:00:56.639Z,18.93
2022-11-24T09:03:23.090Z,18.96
2022-11-24T09:05:52.050Z,18.97
2022-11-24T09:08:19.190Z,18.97
2022-11-24T09:10:45.757Z,18.99
2022-11-24T09:13:12.383Z,19.00
2022-11-24T09:15:38.894Z,19.01
2022-11-24T09:18:05.498Z,19.03
2022-11-24T09:20:31.926Z,19.04
2022-11-24T09:22:58.459Z,19.05
2022-11-24T09:25:24.999Z,19.06
2022-11-24T09:27:51.759Z,19.06
2022-11-24T09:30:18.456Z,19.08
2022-11-24T09:32:44.965Z,19.08
2022-11-24T09:35:11.482Z,19.11
2022-11-24T09:37:38.119Z,19.11
2022-11-24T09:40:04.943Z,19.10
2022-11-24T09:42:53.605Z,19.12
2022-11-24T09:45:49.345Z,19.13
2022-11-24T09:48:22.622Z,19.13
2022-11-24T09:50:49.662Z,19.14
2022-11-24T09:53:19.093Z,19.15
2022-11-24T09:56:04.848Z,19.16
2022-11-24T09:58:35.611Z,19.16
2022-11-24T10:01:05.068Z,19.19
2022-11-24T10:03:33.146Z,19.17
2022-11-24T10:06:01.534Z,19.20
2022-11-24T10:08:28.007Z,19.18
2022-11-24T10:10:59.703Z,19.19
2022-11-24T10:13:46.715Z,19.20
2022-11-24T10:16:19.074Z,19.20
2022-11-24T10:18:53.366Z,19.21
2022-11-24T10:21:19.844Z,19.21
2022-11-24T10:23:49.273Z,19.21
2022-11-24T10:26:20.112Z,19.22
2022-11-24T10:28:51.733Z,19.23
2022-11-24T10:31:29.355Z,19.22
2022-11-24T10:33:58.136Z,19.24
2022-11-24T10:36:47.072Z,19.22
2022-11-24T10:39:32.412Z,19.24
2022-11-24T10:42:19.646Z,19.23
2022-11-24T10:44:46.247Z,19.24
2022-11-24T10:47:23.045Z,19.25
2022-11-24T10:49:57.874Z,19.25
2022-11-24T10:52:24.870Z,19.24
2022-11-24T10:54:59.058Z,19.25
2022-11-24T10:57:33.296Z,19.25
2022-11-24T11:00:00.520Z,19.26
2022-11-24T11:02:27.261Z,19.25
2022-11-24T11:04:53.828Z,19.27
2022-11-24T11:07:22.187Z,19.27
2022-11-24T11:09:49.039Z,19.28
2022-11-24T11:15:30.227Z,19.28
2022-11-24T11:18:01.081Z,19.29
2022-11-24T11:20:32.302Z,19.29
2022-11-24T11:23:00.406Z,19.30
2022-11-24T11:25:32.713Z,19.30
2022-11-24T11:28:19.563Z,19.31
2022-11-24T11:34:05.454Z,19.31
2022-11-24T11:36:33.696Z,19.30
2022-11-24T11:39:00.682Z,19.31
2022-11-24T11:41:32.409Z,19.33
2022-11-24T11:44:07.241Z,19.32
2022-11-24T11:46:33.808Z,19.33
2022-11-24T11:49:00.624Z,19.34
2022-11-24T11:51:27.117Z,19.35
2022-11-24T11:53:56.686Z,19.34
2022-11-24T11:56:23.148Z,19.35
2022-11-24T11:58:55.967Z,19.35
2022-11-24T12:01:37.657Z,19.35
2022-11-24T12:04:12.908Z,19.35
2022-11-24T12:06:54.737Z,19.36
2022-11-24T12:09:24.324Z,19.35
2022-11-24T12:12:09.522Z,19.35
2022-11-24T12:14:39.517Z,19.36
2022-11-24T12:17:11.881Z,19.36
2022-11-24T12:19:45.704Z,19.37
2022-11-24T12:22:15.253Z,19.39
2022-11-24T12:24:44.933Z,19.38
2022-11-24T12:27:31.709Z,19.39
2022-11-24T12:29:58.226Z,19.38
2022-11-24T12:32:43.414Z,19.39
2022-11-24T12:35:22.514Z,19.38
2022-11-24T12:37:55.139Z,19.38
2022-11-24T12:40:27.685Z,19.39
2022-11-24T12:43:06.619Z,19.40
2022-11-24T12:45:33.112Z,19.40
2022-11-24T12:48:20.811Z,19.39
2022-11-24T12:50:48.294Z,19.40
2022-11-24T12:53:14.817Z,19.40
2022-11-24T12:55:42.649Z,19.40
2022-11-24T12:58:27.606Z,19.41
2022-11-24T13:01:18.648Z,19.39
2022-11-24T13:03:58.782Z,19.40
2022-11-24T13:06:54.702Z,19.41
2022-11-24T13:09:22.378Z,19.40
2022-11-24T13:11:53.180Z,19.41
2022-11-24T13:14:30.525Z,19.41
2022-11-24T13:19:48.554Z,19.41
2022-11-24T13:22:17.331Z,19.42
2022-11-24T13:24:45.158Z,19.42
2022-11-24T13:27:27.114Z,19.41
2022-11-24T13:29:53.749Z,19.41
2022-11-24T13:32:23.076Z,19.41
2022-11-24T13:34:54.771Z,19.41
2022-11-24T13:37:34.337Z,19.41
2022-11-24T13:40:25.027Z,19.41
2022-11-24T13:42:54.543Z,19.41
2022-11-24T13:45:39.582Z,19.41
2022-11-24T13:48:22.615Z,19.41
2022-11-24T13:50:56.162Z,19.41
2022-11-24T13:53:32.041Z,19.40
2022-11-24T13:55:59.929Z,19.41
2022-11-24T13:58:29.778Z,19.41
2022-11-24T14:00:58.432Z,19.41
2022-11-24T14:03:34.378Z,19.41
2022-11-24T14:06:01.733Z,19.41
2022-11-24T14:08:36.442Z,19.42
2022-11-24T14:11:03.495Z,19.42
2022-11-24T14:13:31.762Z,19.41
2022-11-24T14:16:01.297Z,19.42
2022-11-24T14:18:31.715Z,19.41
2022-11-24T14:20:58.788Z,19.41
2022-11-24T14:23:25.313Z,19.41
2022-11-24T14:25:52.556Z,19.41
2022-11-24T14:28:26.558Z,19.42
2022-11-24T14:31:09.637Z,19.42
2022-11-24T14:33:38.285Z,19.42
2022-11-24T14:36:04.923Z,19.41
2022-11-24T14:38:31.457Z,19.42
2022-11-24T14:41:13.359Z,19.41
2022-11-24T14:43:39.813Z,19.43
2022-11-24T14:46:09.783Z,19.42
2022-11-24T14:48:37.417Z,19.42
2022-11-24T14:51:15.273Z,19.42
2022-11-24T14:53:45.431Z,19.41
2022-11-24T14:56:32.881Z,19.42
2022-11-24T14:58:59.490Z,19.41
2022-11-24T15:01:29.191Z,19.41
2022-11-24T15:04:13.067Z,19.41
2022-11-24T15:07:01.599Z,19.41
2022-11-24T15:09:43.031Z,19.40
2022-11-24T15:12:18.424Z,19.41
2022-11-24T15:15:14.417Z,19.42
2022-11-24T15:17:51.815Z,19.42
2022-11-24T15:20:24.202Z,19.41
2022-11-24T15:22:52.477Z,19.41
2022-11-24T15:25:26.283Z,19.42
2022-11-24T15:27:53.222Z,19.41
2022-11-24T15:30:19.806Z,19.40
2022-11-24T15:32:50.156Z,19.41
2022-11-24T15:35:16.649Z,19.40
2022-11-24T15:37:43.059Z,19.42
2022-11-24T15:40:10.734Z,19.41
2022-11-24T15:42:37.177Z,19.40
2022-11-24T15:45:03.761Z,19.41
2022-11-24T15:47:30.203Z,19.41
2022-11-24T15:49:56.701Z,19.42
2022-11-24T15:52:23.183Z,19.41
2022-11-24T15:54:52.819Z,19.42
2022-11-24T15:57:21.708Z,19.42
2022-11-24T15:59:48.117Z,19.41
2022-11-24T16:02:14.658Z,19.42
2022-11-24T16:04:41.714Z,19.41
2022-11-24T16:07:14.258Z,19.41
2022-11-24T16:09:41.108Z,19.41
2022-11-24T16:12:10.751Z,19.41
2022-11-24T16:14:37.642Z,19.40
2022-11-24T16:17:04.449Z,19.41
2022-11-24T16:19:30.923Z,19.41
2022-11-24T16:21:57.422Z,19.41
2022-11-24T16:24:23.939Z,19.41
2022-11-24T16:26:50.378Z,19.42
2022-11-24T16:29:16.913Z,19.41
2022-11-24T16:31:44.499Z,19.41
2022-11-24T16:34:11.057Z,19.41
2022-11-24T16:36:37.546Z,19.42
2022-11-24T16:39:04.047Z,19.42
2022-11-24T16:41:30.570Z,19.42
2022-11-24T16:43:59.546Z,19.42
2022-11-24T16:46:26.030Z,19.43
2022-11-24T16:48:53.717Z,19.39
2022-11-24T16:51:21.869Z,19.32
2022-11-24T16:53:48.933Z,19.26
2022-11-24T16:56:17.481Z,19.24
2022-11-24T16:58:44.022Z,19.25
2022-11-24T17:01:11.674Z,19.28
2022-11-24T17:03:38.397Z,19.29
2022-11-24T17:06:05.891Z,19.32
2022-11-24T17:08:33.042Z,19.34
2022-11-24T17:11:08.347Z,19.33
2022-11-24T17:13:34.809Z,19.35
2022-11-24T17:16:08.284Z,19.38
2022-11-24T17:18:35.385Z,19.50
2022-11-24T17:21:07.630Z,19.58
2022-11-24T17:23:35.804Z,19.62
2022-11-24T17:26:03.242Z,19.65
2022-11-24T17:28:29.981Z,19.67
2022-11-24T17:30:56.914Z,19.62
2022-11-24T17:33:23.498Z,19.65
2022-11-24T17:35:49.949Z,19.67
2022-11-24T17:38:16.470Z,19.68
2022-11-24T17:40:48.869Z,19.70
2022-11-24T17:43:15.408Z,19.70
2022-11-24T17:45:41.933Z,19.71
2022-11-24T17:48:08.464Z,19.72
2022-11-24T17:50:34.965Z,19.71
2022-11-24T17:53:01.492Z,19.72
2022-11-24T17:55:27.921Z,19.73
2022-11-24T17:57:55.585Z,19.73
2022-11-24T18:00:22.313Z,19.73
2022-11-24T18:02:48.769Z,19.74
2022-11-24T18:05:15.195Z,19.75
2022-11-24T18:07:41.820Z,19.73
2022-11-24T18:10:08.663Z,19.74
2022-11-24T18:12:35.189Z,19.75
2022-11-24T18:15:01.592Z,19.75
2022-11-24T18:17:29.352Z,19.75
2022-11-24T18:19:56.044Z,19.76
2022-11-24T18:22:43.034Z,19.74
2022-11-24T18:25:09.573Z,19.75
2022-11-24T18:27:35.986Z,19.77
2022-11-24T18:30:02.526Z,19.77
2022-11-24T18:32:28.965Z,19.77
2022-11-24T18:34:55.498Z,19.76
2022-11-24T18:37:21.946Z,19.76
2022-11-24T18:39:48.410Z,19.76
2022-11-24T18:42:15.253Z,19.76
2022-11-24T18:44:42.442Z,19.76
2022-11-24T18:47:09.021Z,19.77
2022-11-24T18:49:35.465Z,19.76
2022-11-24T18:52:01.958Z,19.77
2022-11-24T18:54:28.469Z,19.77
2022-11-24T18:56:58.900Z,19.78
2022-11-24T18:59:28.359Z,19.77
2022-11-24T19:01:56.033Z,19.76
2022-11-24T19:04:24.009Z,19.77
2022-11-24T19:06:50.471Z,19.78
2022-11-24T19:09:18.679Z,19.78
2022-11-24T19:11:46.278Z,19.78
2022-11-24T19:14:13.949Z,19.78
2022-11-24T19:16:40.893Z,19.78
2022-11-24T19:19:08.075Z,19.78
2022-11-24T19:21:37.249Z,19.78
2022-11-24T19:24:05.697Z,19.78
2022-11-24T19:26:32.808Z,19.77
2022-11-24T19:28:59.354Z,19.78
2022-11-24T19:31:25.826Z,19.78
2022-11-24T19:33:54.559Z,19.77
2022-11-24T19:36:22.566Z,19.78
2022-11-24T19:38:53.234Z,19.77
2022-11-24T19:41:20.893Z,19.78
2022-11-24T19:43:48.238Z,19.78
2022-11-24T19:46:16.263Z,19.79
2022-11-24T19:48:44.067Z,19.79
2022-11-24T19:51:12.161Z,19.78
2022-11-24T19:53:38.674Z,19.78
2022-11-24T19:56:09.505Z,19.78
2022-11-24T19:58:36.595Z,19.78
2022-11-24T20:01:07.030Z,19.78
2022-11-24T20:03:33.834Z,19.78
2022-11-24T20:06:00.289Z,19.78
2022-11-24T20:08:30.633Z,19.78
2022-11-24T20:11:16.504Z,19.78
2022-11-24T20:13:44.483Z,19.77
2022-11-24T20:16:12.732Z,19.77
2022-11-24T20:18:42.432Z,19.77
2022-11-24T20:21:10.085Z,19.79
2022-11-24T20:23:36.501Z,19.74
2022-11-24T20:26:05.707Z,19.78
2022-11-24T20:28:32.405Z,19.76
2022-11-24T20:31:05.924Z,19.78
2022-11-24T20:33:32.455Z,19.78
2022-11-24T20:36:05.609Z,19.78
2022-11-24T20:38:32.307Z,19.78
2022-11-24T20:41:08.981Z,19.78
2022-11-24T20:43:36.304Z,19.77
2022-11-24T20:46:04.093Z,19.77
2022-11-24T20:48:30.926Z,19.76
2022-11-24T20:51:02.368Z,19.78
2022-11-24T20:53:28.797Z,19.78
2022-11-24T20:56:06.350Z,19.78
2022-11-24T20:58:33.794Z,19.79
2022-11-24T21:01:07.315Z,19.78
2022-11-24T21:03:39.676Z,19.79
2022-11-24T21:06:09.443Z,19.79
2022-11-24T21:08:36.769Z,19.79
2022-11-24T21:11:03.851Z,19.79
2022-11-24T21:13:32.590Z,19.79
2022-11-24T21:15:59.236Z,19.81
2022-11-24T21:18:25.763Z,19.80
2022-11-24T21:20:52.177Z,19.81
2022-11-24T21:23:20.582Z,19.80
2022-11-24T21:25:47.061Z,19.79
2022-11-24T21:28:13.570Z,19.80
2022-11-24T21:30:40.148Z,19.80
2022-11-24T21:33:07.345Z,19.79
2022-11-24T21:35:34.757Z,19.79
2022-11-24T21:38:01.170Z,19.78
2022-11-24T21:40:27.665Z,19.77
2022-11-24T21:42:54.144Z,19.78
2022-11-24T21:45:20.667Z,19.78
2022-11-24T21:47:47.352Z,19.78
2022-11-24T21:50:13.756Z,19.78
2022-11-24T21:52:40.217Z,19.77
2022-11-24T21:55:07.124Z,19.77
2022-11-24T21:57:33.596Z,19.76
2022-11-24T22:00:00.449Z,19.75
2022-11-24T22:02:27.043Z,19.76
2022-11-24T22:04:53.609Z,19.75
2022-11-24T22:07:20.092Z,19.75
2022-11-24T22:09:46.748Z,19.74
2022-11-24T22:12:13.201Z,19.74
2022-11-24T22:14:40.664Z,19.73
2022-11-24T22:17:07.574Z,19.74
2022-11-24T22:19:34.118Z,19.73
2022-11-24T22:22:00.604Z,19.73
2022-11-24T22:24:27.576Z,19.72
2022-11-24T22:26:54.783Z,19.72
2022-11-24T22:29:21.363Z,19.71
2022-11-24T22:31:47.956Z,19.71
2022-11-24T22:34:14.567Z,19.71
2022-11-24T22:36:41.074Z,19.70
2022-11-24T22:39:10.973Z,19.71
2022-11-24T22:41:37.666Z,19.71
2022-11-24T22:44:04.830Z,19.72
2022-11-24T22:46:32.008Z,19.71
2022-11-24T22:48:59.638Z,19.71
2022-11-24T22:51:27.359Z,19.70
2022-11-24T22:53:55.087Z,19.70
2022-11-24T22:56:22.031Z,19.70
2022-11-24T22:58:50.853Z,19.69
2022-11-24T23:01:19.362Z,19.69
2022-11-24T23:03:45.940Z,19.68
2022-11-24T23:06:16.649Z,19.70
2022-11-24T23:08:43.286Z,19.65
2022-11-24T23:11:09.669Z,19.63
2022-11-24T23:13:36.546Z,19.63
2022-11-24T23:16:04.638Z,19.62
2022-11-24T23:18:31.514Z,19.60
2022-11-24T23:21:04.138Z,19.56
2022-11-24T23:23:30.555Z,19.53
2022-11-24T23:25:59.458Z,19.52
2022-11-24T23:28:25.909Z,19.41
2022-11-24T23:30:52.474Z,19.47
2022-11-24T23:33:19.021Z,19.45
2022-11-24T23:35:45.457Z,19.43
2022-11-24T23:38:11.972Z,19.41
2022-11-24T23:40:38.449Z,19.40
2022-11-24T23:43:04.909Z,19.37
2022-11-24T23:45:32.034Z,19.36
2022-11-24T23:47:58.549Z,19.35
2022-11-24T23:50:25.156Z,19.33
2022-11-24T23:52:51.651Z,19.31
2022-11-24T23:55:19.083Z,19.32
2022-11-24T23:57:45.551Z,19.29
